sensor_id;sensor_type;location;lat;lon;timestamp;pressure;altitude;pressure_sealevel;temperature;humidity
59443;BME280;45247;47.466;19.004;2023-02-17T00:00:12;100824.88;;;-0.66;100.00
59443;BME280;45247;47.466;19.004;2023-02-17T00:02:42;100828.31;;;-0.69;100.00
59443;BME280;45247;47.466;19.004;2023-02-17T00:05:11;100830.91;;;-0.70;100.00
59443;BME280;45247;47.466;19.004;2023-02-17T00:07:39;100824.00;;;-0.73;100.00
59443;BME280;45247;47.466;19.004;2023-02-17T00:10:08;100817.09;;;-0.71;100.00
59443;BME280;45247;47.466;19.004;2023-02-17T00:12:36;100823.16;;;-0.66;100.00
59443;BME280;45247;47.466;19.004;2023-02-17T00:15:05;100830.94;;;-0.63;100.00
59443;BME280;45247;47.466;19.004;2023-02-17T00:17:34;100824.88;;;-0.59;100.00
59443;BME280;45247;47.466;19.004;2023-02-17T00:20:05;100823.16;;;-0.57;100.00
59443;BME280;45247;47.466;19.004;2023-02-17T00:22:34;100820.56;;;-0.51;100.00
59443;BME280;45247;47.466;19.004;2023-02-17T00:25:03;100817.09;;;-0.49;100.00
59443;BME280;45247;47.466;19.004;2023-02-17T00:27:31;100827.50;;;-0.46;100.00
59443;BME280;45247;47.466;19.004;2023-02-17T00:29:59;100821.44;;;-0.50;100.00
59443;BME280;45247;47.466;19.004;2023-02-17T00:32:28;100814.53;;;-0.46;100.00
59443;BME280;45247;47.466;19.004;2023-02-17T00:34:58;100813.66;;;-0.42;100.00
59443;BME280;45247;47.466;19.004;2023-02-17T00:37:28;100814.50;;;-0.36;100.00
59443;BME280;45247;47.466;19.004;2023-02-17T00:39:56;100816.25;;;-0.26;100.00
59443;BME280;45247;47.466;19.004;2023-02-17T00:42:24;100814.50;;;-0.13;100.00
59443;BME280;45247;47.466;19.004;2023-02-17T00:44:52;100818.78;;;-0.09;100.00
59443;BME280;45247;47.466;19.004;2023-02-17T00:47:21;100818.81;;;-0.04;100.00
59443;BME280;45247;47.466;19.004;2023-02-17T00:49:49;100818.78;;;0.10;100.00
59443;BME280;45247;47.466;19.004;2023-02-17T00:52:17;100819.66;;;0.09;100.00
59443;BME280;45247;47.466;19.004;2023-02-17T00:54:46;100825.69;;;0.14;100.00
59443;BME280;45247;47.466;19.004;2023-02-17T00:57:14;100829.97;;;0.24;100.00
59443;BME280;45247;47.466;19.004;2023-02-17T00:59:43;100822.19;;;0.24;100.00
59443;BME280;45247;47.466;19.004;2023-02-17T01:02:11;100823.03;;;0.29;100.00
59443;BME280;45247;47.466;19.004;2023-02-17T01:04:39;100814.38;;;0.25;100.00
59443;BME280;45247;47.466;19.004;2023-02-17T01:07:07;100814.38;;;0.25;100.00
59443;BME280;45247;47.466;19.004;2023-02-17T01:09:35;100808.34;;;0.23;100.00
59443;BME280;45247;47.466;19.004;2023-02-17T01:12:05;100812.69;;;0.18;100.00
59443;BME280;45247;47.466;19.004;2023-02-17T01:14:33;100813.56;;;0.19;100.00
59443;BME280;45247;47.466;19.004;2023-02-17T01:17:01;100814.44;;;0.15;100.00
59443;BME280;45247;47.466;19.004;2023-02-17T01:19:29;100810.13;;;0.11;100.00
59443;BME280;45247;47.466;19.004;2023-02-17T01:21:58;100806.69;;;0.09;100.00
59443;BME280;45247;47.466;19.004;2023-02-17T01:24:26;100811.84;;;0.12;100.00
59443;BME280;45247;47.466;19.004;2023-02-17T01:26:54;100813.59;;;0.10;100.00
59443;BME280;45247;47.466;19.004;2023-02-17T01:29:24;100807.56;;;0.05;100.00
59443;BME280;45247;47.466;19.004;2023-02-17T01:31:52;100799.75;;;0.05;100.00
59443;BME280;45247;47.466;19.004;2023-02-17T01:34:20;100801.47;;;0.07;100.00
59443;BME280;45247;47.466;19.004;2023-02-17T01:36:48;100799.72;;;0.11;100.00
59443;BME280;45247;47.466;19.004;2023-02-17T01:39:17;100798.88;;;0.13;100.00
59443;BME280;45247;47.466;19.004;2023-02-17T01:41:45;100794.53;;;0.15;100.00
59443;BME280;45247;47.466;19.004;2023-02-17T01:44:15;100794.50;;;0.17;100.00
59443;BME280;45247;47.466;19.004;2023-02-17T01:46:47;100793.69;;;0.13;100.00
59443;BME280;45247;47.466;19.004;2023-02-17T01:49:24;100794.53;;;0.11;100.00
59443;BME280;45247;47.466;19.004;2023-02-17T01:51:57;100793.69;;;0.07;100.00
59443;BME280;45247;47.466;19.004;2023-02-17T01:54:33;100777.25;;;0.07;100.00
59443;BME280;45247;47.466;19.004;2023-02-17T01:57:03;100778.13;;;0.09;100.00
59443;BME280;45247;47.466;19.004;2023-02-17T01:59:32;100780.69;;;0.15;100.00
59443;BME280;45247;47.466;19.004;2023-02-17T02:02:03;100785.00;;;0.14;100.00
59443;BME280;45247;47.466;19.004;2023-02-17T02:04:35;100775.50;;;0.15;100.00
59443;BME280;45247;47.466;19.004;2023-02-17T02:07:10;100782.41;;;0.13;100.00
59443;BME280;45247;47.466;19.004;2023-02-17T02:09:45;100776.34;;;0.12;100.00
59443;BME280;45247;47.466;19.004;2023-02-17T02:12:17;100777.25;;;0.10;100.00
59443;BME280;45247;47.466;19.004;2023-02-17T02:14:48;100770.34;;;0.03;100.00
59443;BME280;45247;47.466;19.004;2023-02-17T02:17:28;100766.84;;;0.04;100.00
59443;BME280;45247;47.466;19.004;2023-02-17T02:20:26;100773.81;;;0.05;100.00
59443;BME280;45247;47.466;19.004;2023-02-17T02:32:25;100759.94;;;0.03;100.00
59443;BME280;45247;47.466;19.004;2023-02-17T02:35:00;100756.47;;;0.07;100.00
59443;BME280;45247;47.466;19.004;2023-02-17T02:37:38;100759.06;;;0.10;100.00
59443;BME280;45247;47.466;19.004;2023-02-17T02:40:11;100759.94;;;0.06;100.00
59443;BME280;45247;47.466;19.004;2023-02-17T02:42:42;100752.13;;;0.12;100.00
59443;BME280;45247;47.466;19.004;2023-02-17T02:45:12;100752.97;;;0.20;100.00
59443;BME280;45247;47.466;19.004;2023-02-17T02:47:51;100755.53;;;0.31;100.00
59443;BME280;45247;47.466;19.004;2023-02-17T02:50:23;100745.16;;;0.28;100.00
59443;BME280;45247;47.466;19.004;2023-02-17T02:53:25;100746.81;;;0.41;100.00
59443;BME280;45247;47.466;19.004;2023-02-17T02:56:07;100753.66;;;0.59;100.00
59443;BME280;45247;47.466;19.004;2023-02-17T02:58:42;100740.66;;;0.59;100.00
59443;BME280;45247;47.466;19.004;2023-02-17T03:01:20;100752.81;;;0.50;100.00
59443;BME280;45247;47.466;19.004;2023-02-17T03:04:01;100752.00;;;0.48;100.00
59443;BME280;45247;47.466;19.004;2023-02-17T03:06:38;100745.06;;;0.47;100.00
59443;BME280;45247;47.466;19.004;2023-02-17T03:09:10;100752.88;;;0.41;100.00
59443;BME280;45247;47.466;19.004;2023-02-17T03:11:40;100754.59;;;0.45;100.00
59443;BME280;45247;47.466;19.004;2023-02-17T03:14:10;100754.63;;;0.39;100.00
59443;BME280;45247;47.466;19.004;2023-02-17T03:16:40;100749.50;;;0.30;100.00
59443;BME280;45247;47.466;19.004;2023-02-17T03:19:11;100764.16;;;0.39;100.00
59443;BME280;45247;47.466;19.004;2023-02-17T03:21:42;100777.13;;;0.37;100.00
59443;BME280;45247;47.466;19.004;2023-02-17T03:24:14;100773.69;;;0.32;100.00
59443;BME280;45247;47.466;19.004;2023-02-17T03:26:43;100769.38;;;0.28;100.00
59443;BME280;45247;47.466;19.004;2023-02-17T03:29:11;100768.53;;;0.23;100.00
59443;BME280;45247;47.466;19.004;2023-02-17T03:31:39;100772.91;;;0.18;100.00
59443;BME280;45247;47.466;19.004;2023-02-17T03:34:09;100762.50;;;0.12;100.00
59443;BME280;45247;47.466;19.004;2023-02-17T03:36:37;100746.09;;;0.07;100.00
59443;BME280;45247;47.466;19.004;2023-02-17T03:39:06;100775.53;;;0.03;100.00
59443;BME280;45247;47.466;19.004;2023-02-17T03:41:34;100772.94;;;0.01;100.00
59443;BME280;45247;47.466;19.004;2023-02-17T03:44:02;100769.50;;;-0.03;100.00
59443;BME280;45247;47.466;19.004;2023-02-17T03:46:30;100759.09;;;-0.06;100.00
59443;BME280;45247;47.466;19.004;2023-02-17T03:48:58;100766.00;;;-0.05;100.00
59443;BME280;45247;47.466;19.004;2023-02-17T03:51:28;100768.59;;;-0.05;100.00
59443;BME280;45247;47.466;19.004;2023-02-17T03:53:56;100781.59;;;0.00;100.00
59443;BME280;45247;47.466;19.004;2023-02-17T03:56:24;100773.81;;;-0.02;100.00
59443;BME280;45247;47.466;19.004;2023-02-17T03:58:53;100766.84;;;0.04;100.00
59443;BME280;45247;47.466;19.004;2023-02-17T04:01:21;100754.78;;;-0.04;100.00
59443;BME280;45247;47.466;19.004;2023-02-17T04:03:50;100759.09;;;0.02;100.00
59443;BME280;45247;47.466;19.004;2023-02-17T04:06:18;100753.03;;;0.02;100.00
59443;BME280;45247;47.466;19.004;2023-02-17T04:08:48;100758.22;;;0.02;100.00
59443;BME280;45247;47.466;19.004;2023-02-17T04:11:16;100763.38;;;0.08;100.00
59443;BME280;45247;47.466;19.004;2023-02-17T04:13:45;100759.94;;;0.09;100.00
59443;BME280;45247;47.466;19.004;2023-02-17T04:16:13;100770.31;;;0.10;100.00
59443;BME280;45247;47.466;19.004;2023-02-17T04:18:41;100768.63;;;0.05;100.00
59443;BME280;45247;47.466;19.004;2023-02-17T04:21:10;100770.34;;;0.09;100.00
59443;BME280;45247;47.466;19.004;2023-02-17T04:23:38;100763.41;;;0.05;100.00
59443;BME280;45247;47.466;19.004;2023-02-17T04:26:08;100763.41;;;0.05;100.00
59443;BME280;45247;47.466;19.004;2023-02-17T04:28:37;100756.44;;;0.16;100.00
59443;BME280;45247;47.466;19.004;2023-02-17T04:31:05;100753.00;;;0.14;100.00
59443;BME280;45247;47.466;19.004;2023-02-17T04:33:34;100754.69;;;0.21;100.00
59443;BME280;45247;47.466;19.004;2023-02-17T04:36:04;100755.53;;;0.24;100.00
59443;BME280;45247;47.466;19.004;2023-02-17T04:38:33;100749.47;;;0.25;100.00
59443;BME280;45247;47.466;19.004;2023-02-17T04:41:02;100753.81;;;0.31;100.00
59443;BME280;45247;47.466;19.004;2023-02-17T04:43:32;100755.53;;;0.31;100.00
59443;BME280;45247;47.466;19.004;2023-02-17T04:46:01;100748.59;;;0.31;100.00
59443;BME280;45247;47.466;19.004;2023-02-17T04:48:29;100765.91;;;0.35;100.00
59443;BME280;45247;47.466;19.004;2023-02-17T04:50:57;100756.41;;;0.31;100.00
59443;BME280;45247;47.466;19.004;2023-02-17T04:53:26;100751.19;;;0.31;100.00
59443;BME280;45247;47.466;19.004;2023-02-17T04:55:54;100752.91;;;0.35;100.00
59443;BME280;45247;47.466;19.004;2023-02-17T04:58:22;100749.44;;;0.33;100.00
59443;BME280;45247;47.466;19.004;2023-02-17T05:00:52;100752.91;;;0.32;100.00
59443;BME280;45247;47.466;19.004;2023-02-17T05:03:20;100759.84;;;0.33;100.00
59443;BME280;45247;47.466;19.004;2023-02-17T05:05:48;100759.84;;;0.36;100.00
59443;BME280;45247;47.466;19.004;2023-02-17T05:08:16;100751.16;;;0.37;100.00
59443;BME280;45247;47.466;19.004;2023-02-17T05:10:45;100759.78;;;0.42;100.00
59443;BME280;45247;47.466;19.004;2023-02-17T05:13:13;100763.25;;;0.47;100.00
59443;BME280;45247;47.466;19.004;2023-02-17T05:15:42;100759.81;;;0.44;100.00
59443;BME280;45247;47.466;19.004;2023-02-17T05:18:12;100761.50;;;0.53;100.00
59443;BME280;45247;47.466;19.004;2023-02-17T05:20:41;100758.03;;;0.54;100.00
59443;BME280;45247;47.466;19.004;2023-02-17T05:23:09;100756.25;;;0.56;100.00
59443;BME280;45247;47.466;19.004;2023-02-17T05:25:37;100756.25;;;0.62;100.00
59443;BME280;45247;47.466;19.004;2023-02-17T05:28:06;100758.81;;;0.63;100.00
59443;BME280;45247;47.466;19.004;2023-02-17T05:30:34;100754.47;;;0.70;100.00
59443;BME280;45247;47.466;19.004;2023-02-17T05:33:03;100753.53;;;0.77;100.00
59443;BME280;45247;47.466;19.004;2023-02-17T05:35:34;100753.53;;;0.77;100.00
59443;BME280;45247;47.466;19.004;2023-02-17T05:38:02;100757.84;;;0.81;100.00
59443;BME280;45247;47.466;19.004;2023-02-17T05:40:30;100760.44;;;0.86;100.00
59443;BME280;45247;47.466;19.004;2023-02-17T05:42:58;100751.75;;;0.91;100.00
59443;BME280;45247;47.466;19.004;2023-02-17T05:45:27;100756.94;;;0.94;100.00
59443;BME280;45247;47.466;19.004;2023-02-17T05:47:55;100752.50;;;1.03;100.00
59443;BME280;45247;47.466;19.004;2023-02-17T05:50:23;100762.88;;;1.10;100.00
59443;BME280;45247;47.466;19.004;2023-02-17T05:52:53;100757.69;;;1.12;100.00
59443;BME280;45247;47.466;19.004;2023-02-17T05:55:21;100768.00;;;1.19;100.00
59443;BME280;45247;47.466;19.004;2023-02-17T05:57:49;100756.72;;;1.19;100.00
59443;BME280;45247;47.466;19.004;2023-02-17T06:00:17;100764.53;;;1.22;100.00
59443;BME280;45247;47.466;19.004;2023-02-17T06:02:46;100758.41;;;1.26;100.00
59443;BME280;45247;47.466;19.004;2023-02-17T06:05:14;100762.72;;;1.30;100.00
59443;BME280;45247;47.466;19.004;2023-02-17T06:07:42;100755.75;;;1.35;100.00
59443;BME280;45247;47.466;19.004;2023-02-17T06:10:12;100759.16;;;1.43;100.00
59443;BME280;45247;47.466;19.004;2023-02-17T06:12:41;100748.75;;;1.43;100.00
59443;BME280;45247;47.466;19.004;2023-02-17T06:15:09;100749.53;;;1.52;100.00
59443;BME280;45247;47.466;19.004;2023-02-17T06:17:37;100760.75;;;1.57;100.00
59443;BME280;45247;47.466;19.004;2023-02-17T06:20:06;100772.84;;;1.64;100.00
59443;BME280;45247;47.466;19.004;2023-02-17T06:22:35;100779.75;;;1.68;100.00
59443;BME280;45247;47.466;19.004;2023-02-17T06:25:03;100783.97;;;1.78;100.00
59443;BME280;45247;47.466;19.004;2023-02-17T06:27:33;100783.06;;;1.85;100.00
59443;BME280;45247;47.466;19.004;2023-02-17T06:30:03;100783.84;;;1.92;100.00
59443;BME280;45247;47.466;19.004;2023-02-17T06:32:31;100781.25;;;1.93;100.00
59443;BME280;45247;47.466;19.004;2023-02-17T06:35:00;100781.22;;;1.95;100.00
59443;BME280;45247;47.466;19.004;2023-02-17T06:37:28;100783.81;;;1.95;100.00
59443;BME280;45247;47.466;19.004;2023-02-17T06:39:57;100784.66;;;1.95;100.00
59443;BME280;45247;47.466;19.004;2023-02-17T06:42:25;100781.13;;;2.01;100.00
59443;BME280;45247;47.466;19.004;2023-02-17T06:44:55;100786.31;;;2.06;100.00
59443;BME280;45247;47.466;19.004;2023-02-17T06:47:23;100789.66;;;2.17;100.00
59443;BME280;45247;47.466;19.004;2023-02-17T06:49:51;100793.13;;;2.19;100.00
59443;BME280;45247;47.466;19.004;2023-02-17T06:52:19;100786.94;;;2.28;100.00
59443;BME280;45247;47.466;19.004;2023-02-17T06:54:47;100786.78;;;2.41;100.00
59443;BME280;45247;47.466;19.004;2023-02-17T06:57:16;100778.81;;;2.52;100.00
59443;BME280;45247;47.466;19.004;2023-02-17T06:59:44;100780.53;;;2.55;100.00
59443;BME280;45247;47.466;19.004;2023-02-17T07:02:14;100781.25;;;2.64;100.00
59443;BME280;45247;47.466;19.004;2023-02-17T07:04:43;100780.22;;;2.79;100.00
59443;BME280;45247;47.466;19.004;2023-02-17T07:07:11;100780.91;;;2.92;100.00
59443;BME280;45247;47.466;19.004;2023-02-17T07:09:39;100779.88;;;3.02;100.00
59443;BME280;45247;47.466;19.004;2023-02-17T07:12:07;100784.19;;;3.03;100.00
59443;BME280;45247;47.466;19.004;2023-02-17T07:14:36;100779.84;;;3.04;100.00
59443;BME280;45247;47.466;19.004;2023-02-17T07:17:04;100786.72;;;3.08;100.00
59443;BME280;45247;47.466;19.004;2023-02-17T07:19:33;100786.66;;;3.14;100.00
59443;BME280;45247;47.466;19.004;2023-02-17T07:22:02;100783.06;;;3.21;100.00
59443;BME280;45247;47.466;19.004;2023-02-17T07:24:30;100785.66;;;3.22;100.00
59443;BME280;45247;47.466;19.004;2023-02-17T07:26:59;100781.94;;;3.39;100.00
59443;BME280;45247;47.466;19.004;2023-02-17T07:29:27;100786.25;;;3.40;100.00
59443;BME280;45247;47.466;19.004;2023-02-17T07:31:56;100780.84;;;3.50;100.00
59443;BME280;45247;47.466;19.004;2023-02-17T07:34:24;100773.66;;;3.63;100.00
59443;BME280;45247;47.466;19.004;2023-02-17T07:36:54;100773.50;;;3.72;100.00
59443;BME280;45247;47.466;19.004;2023-02-17T07:39:22;100775.97;;;3.82;100.00
59443;BME280;45247;47.466;19.004;2023-02-17T07:41:50;100773.28;;;3.85;100.00
59443;BME280;45247;47.466;19.004;2023-02-17T07:44:18;100772.16;;;3.98;100.00
59443;BME280;45247;47.466;19.004;2023-02-17T07:46:46;100767.66;;;4.08;100.00
59443;BME280;45247;47.466;19.004;2023-02-17T07:49:15;100763.84;;;4.24;100.00
59443;BME280;45247;47.466;19.004;2023-02-17T07:51:43;100760.91;;;4.39;100.00
59443;BME280;45247;47.466;19.004;2023-02-17T07:54:13;100761.47;;;4.53;100.00
59443;BME280;45247;47.466;19.004;2023-02-17T07:56:41;100763.81;;;4.67;100.00
59443;BME280;45247;47.466;19.004;2023-02-17T07:59:10;100761.91;;;4.75;100.00
59443;BME280;45247;47.466;19.004;2023-02-17T08:01:39;100752.78;;;4.92;100.00
59443;BME280;45247;47.466;19.004;2023-02-17T08:04:07;100753.25;;;5.11;100.00
59443;BME280;45247;47.466;19.004;2023-02-17T08:06:36;100752.75;;;5.31;100.00
59443;BME280;45247;47.466;19.004;2023-02-17T08:09:05;100754.84;;;5.52;100.00
59443;BME280;45247;47.466;19.004;2023-02-17T08:11:52;100755.19;;;5.72;100.00
59443;BME280;45247;47.466;19.004;2023-02-17T08:14:37;100762.56;;;5.92;100.00
59443;BME280;45247;47.466;19.004;2023-02-17T08:17:06;100765.59;;;6.10;100.00
59443;BME280;45247;47.466;19.004;2023-02-17T08:19:34;100764.41;;;6.20;100.00
59443;BME280;45247;47.466;19.004;2023-02-17T08:22:14;100771.69;;;6.41;100.00
59443;BME280;45247;47.466;19.004;2023-02-17T08:24:42;100771.03;;;6.64;100.00
59443;BME280;45247;47.466;19.004;2023-02-17T08:27:12;100778.41;;;6.81;100.00
59443;BME280;45247;47.466;19.004;2023-02-17T08:29:41;100768.13;;;7.01;100.00
59443;BME280;45247;47.466;19.004;2023-02-17T08:32:10;100776.16;;;7.25;100.00
59443;BME280;45247;47.466;19.004;2023-02-17T08:34:39;100776.38;;;7.45;100.00
59443;BME280;45247;47.466;19.004;2023-02-17T08:37:07;100768.03;;;7.59;100.00
59443;BME280;45247;47.466;19.004;2023-02-17T08:39:36;100769.88;;;7.82;100.00
59443;BME280;45247;47.466;19.004;2023-02-17T08:42:04;100774.59;;;7.97;100.00
59443;BME280;45247;47.466;19.004;2023-02-17T08:44:35;100761.31;;;8.02;100.00
59443;BME280;45247;47.466;19.004;2023-02-17T08:47:04;100761.75;;;8.13;100.00
59443;BME280;45247;47.466;19.004;2023-02-17T08:49:33;100766.53;;;8.27;100.00
59443;BME280;45247;47.466;19.004;2023-02-17T08:52:02;100756.50;;;8.38;100.00
59443;BME280;45247;47.466;19.004;2023-02-17T08:54:30;100755.38;;;8.45;100.00
59443;BME280;45247;47.466;19.004;2023-02-17T08:56:59;100749.81;;;8.53;100.00
59443;BME280;45247;47.466;19.004;2023-02-17T08:59:27;100754.91;;;8.58;100.00
59443;BME280;45247;47.466;19.004;2023-02-17T09:01:57;100763.03;;;8.75;100.00
59443;BME280;45247;47.466;19.004;2023-02-17T09:04:25;100763.88;;;8.75;98.24
59443;BME280;45247;47.466;19.004;2023-02-17T09:06:54;100762.56;;;8.87;99.08
59443;BME280;45247;47.466;19.004;2023-02-17T09:09:25;100755.63;;;9.07;98.18
59443;BME280;45247;47.466;19.004;2023-02-17T09:11:55;100749.00;;;9.40;96.04
59443;BME280;45247;47.466;19.004;2023-02-17T09:14:24;100743.88;;;9.58;93.12
59443;BME280;45247;47.466;19.004;2023-02-17T09:16:53;100759.41;;;9.86;87.65
59443;BME280;45247;47.466;19.004;2023-02-17T09:19:23;100756.69;;;10.08;83.56
59443;BME280;45247;47.466;19.004;2023-02-17T09:21:52;100747.84;;;10.29;81.15
59443;BME280;45247;47.466;19.004;2023-02-17T09:24:21;100752.03;;;10.53;79.85
59443;BME280;45247;47.466;19.004;2023-02-17T09:26:49;100750.56;;;10.65;77.74
59443;BME280;45247;47.466;19.004;2023-02-17T09:29:17;100752.16;;;10.88;79.24
59443;BME280;45247;47.466;19.004;2023-02-17T09:31:46;100742.72;;;11.01;76.82
59443;BME280;45247;47.466;19.004;2023-02-17T09:34:15;100746.97;;;11.04;74.50
59443;BME280;45247;47.466;19.004;2023-02-17T09:36:44;100737.13;;;11.08;76.20
59443;BME280;45247;47.466;19.004;2023-02-17T09:39:13;100742.13;;;11.14;75.95
59443;BME280;45247;47.466;19.004;2023-02-17T09:41:43;100745.97;;;11.07;74.68
59443;BME280;45247;47.466;19.004;2023-02-17T09:44:19;100749.13;;;11.15;74.77
59443;BME280;45247;47.466;19.004;2023-02-17T09:46:53;100747.81;;;11.04;75.35
59443;BME280;45247;47.466;19.004;2023-02-17T09:49:34;100745.97;;;11.07;75.85
59443;BME280;45247;47.466;19.004;2023-02-17T09:52:09;100736.50;;;11.02;74.66
59443;BME280;45247;47.466;19.004;2023-02-17T09:54:43;100739.00;;;11.06;74.40
59443;BME280;45247;47.466;19.004;2023-02-17T09:57:16;100733.41;;;11.12;75.00
59443;BME280;45247;47.466;19.004;2023-02-17T09:59:49;100728.44;;;11.06;75.69
59443;BME280;45247;47.466;19.004;2023-02-17T10:02:28;100732.63;;;11.10;75.76
59443;BME280;45247;47.466;19.004;2023-02-17T10:05:02;100727.97;;;11.15;76.48
59443;BME280;45247;47.466;19.004;2023-02-17T10:07:37;100723.41;;;11.18;75.10
59443;BME280;45247;47.466;19.004;2023-02-17T10:10:09;100721.88;;;10.95;75.50
59443;BME280;45247;47.466;19.004;2023-02-17T10:12:42;100710.16;;;11.01;75.28
59443;BME280;45247;47.466;19.004;2023-02-17T10:15:14;100715.69;;;10.96;75.32
59443;BME280;45247;47.466;19.004;2023-02-17T10:17:50;100709.59;;;10.94;74.75
59443;BME280;45247;47.466;19.004;2023-02-17T10:20:23;100699.44;;;11.04;76.42
59443;BME280;45247;47.466;19.004;2023-02-17T10:22:58;100702.09;;;11.21;76.47
59443;BME280;45247;47.466;19.004;2023-02-17T10:25:42;100693.25;;;11.22;76.02
59443;BME280;45247;47.466;19.004;2023-02-17T10:28:17;100688.03;;;11.38;75.39
59443;BME280;45247;47.466;19.004;2023-02-17T10:30:56;100691.00;;;11.49;76.79
59443;BME280;45247;47.466;19.004;2023-02-17T10:33:30;100686.44;;;11.53;78.30
59443;BME280;45247;47.466;19.004;2023-02-17T10:36:10;100676.84;;;11.50;79.37
59443;BME280;45247;47.466;19.004;2023-02-17T10:38:49;100690.31;;;11.63;78.85
59443;BME280;45247;47.466;19.004;2023-02-17T10:41:21;100687.56;;;11.65;80.17
59443;BME280;45247;47.466;19.004;2023-02-17T10:43:50;100684.91;;;11.65;80.24
59443;BME280;45247;47.466;19.004;2023-02-17T10:46:24;100681.66;;;11.60;79.52
59443;BME280;45247;47.466;19.004;2023-02-17T10:48:55;100681.44;;;11.47;80.46
59443;BME280;45247;47.466;19.004;2023-02-17T10:51:26;100672.28;;;11.54;80.95
59443;BME280;45247;47.466;19.004;2023-02-17T10:53:59;100666.13;;;11.53;80.22
59443;BME280;45247;47.466;19.004;2023-02-17T10:56:34;100661.94;;;11.49;81.19
59443;BME280;45247;47.466;19.004;2023-02-17T10:59:12;100665.91;;;11.58;81.06
59443;BME280;45247;47.466;19.004;2023-02-17T11:01:44;100670.19;;;11.61;81.57
59443;BME280;45247;47.466;19.004;2023-02-17T11:04:13;100655.47;;;11.38;81.56
59443;BME280;45247;47.466;19.004;2023-02-17T11:06:48;100656.94;;;11.26;82.83
59443;BME280;45247;47.466;19.004;2023-02-17T11:09:20;100652.94;;;11.36;82.18
59443;BME280;45247;47.466;19.004;2023-02-17T11:11:58;100653.78;;;11.37;82.96
59443;BME280;45247;47.466;19.004;2023-02-17T11:14:30;100642.25;;;11.38;80.79
59443;BME280;45247;47.466;19.004;2023-02-17T11:17:01;100644.66;;;11.42;80.29
59443;BME280;45247;47.466;19.004;2023-02-17T11:19:32;100634.88;;;11.44;80.69
59443;BME280;45247;47.466;19.004;2023-02-17T11:22:02;100642.09;;;11.58;80.18
59443;BME280;45247;47.466;19.004;2023-02-17T11:24:33;100635.34;;;11.52;77.98
59443;BME280;45247;47.466;19.004;2023-02-17T11:27:03;100630.53;;;11.61;77.98
59443;BME280;45247;47.466;19.004;2023-02-17T11:29:34;100630.19;;;11.67;77.53
59443;BME280;45247;47.466;19.004;2023-02-17T11:32:05;100620.81;;;11.77;77.66
59443;BME280;45247;47.466;19.004;2023-02-17T11:34:36;100616.63;;;11.90;77.98
59443;BME280;45247;47.466;19.004;2023-02-17T11:37:18;100615.13;;;12.02;77.58
59443;BME280;45247;47.466;19.004;2023-02-17T11:39:50;100618.72;;;12.17;77.86
59443;BME280;45247;47.466;19.004;2023-02-17T11:42:21;100617.63;;;12.21;76.94
59443;BME280;45247;47.466;19.004;2023-02-17T11:44:59;100609.06;;;12.16;76.98
59443;BME280;45247;47.466;19.004;2023-02-17T11:47:34;100605.75;;;12.28;77.52
59443;BME280;45247;47.466;19.004;2023-02-17T11:50:29;100610.78;;;12.33;77.86
59443;BME280;45247;47.466;19.004;2023-02-17T11:53:17;100606.09;;;12.38;76.47
59443;BME280;45247;47.466;19.004;2023-02-17T11:56:01;100606.97;;;12.38;75.49
59443;BME280;45247;47.466;19.004;2023-02-17T11:58:48;100589.19;;;12.40;75.37
59443;BME280;45247;47.466;19.004;2023-02-17T12:01:37;100597.91;;;12.42;75.29
59443;BME280;45247;47.466;19.004;2023-02-17T12:04:32;100595.00;;;12.31;76.25
59443;BME280;45247;47.466;19.004;2023-02-17T12:07:35;100594.91;;;12.17;77.10
59443;BME280;45247;47.466;19.004;2023-02-17T12:10:15;100583.38;;;11.86;78.18
59443;BME280;45247;47.466;19.004;2023-02-17T12:12:57;100578.22;;;11.83;79.28
59443;BME280;45247;47.466;19.004;2023-02-17T12:15:48;100580.72;;;11.69;81.73
59443;BME280;45247;47.466;19.004;2023-02-17T12:18:32;100568.56;;;11.49;84.77
59443;BME280;45247;47.466;19.004;2023-02-17T12:21:08;100567.72;;;11.48;87.03
59443;BME280;45247;47.466;19.004;2023-02-17T12:23:50;100567.75;;;11.31;86.91
59443;BME280;45247;47.466;19.004;2023-02-17T12:26:32;100561.19;;;11.38;88.90
59443;BME280;45247;47.466;19.004;2023-02-17T12:29:22;100547.91;;;11.40;90.98
59443;BME280;45247;47.466;19.004;2023-02-17T12:32:11;100553.09;;;11.41;91.81
59443;BME280;45247;47.466;19.004;2023-02-17T12:34:43;100550.53;;;11.57;92.09
59443;BME280;45247;47.466;19.004;2023-02-17T12:37:18;100567.44;;;11.70;91.78
59443;BME280;45247;47.466;19.004;2023-02-17T12:39:50;100570.44;;;11.80;90.92
59443;BME280;45247;47.466;19.004;2023-02-17T12:42:23;100557.59;;;12.06;90.99
59443;BME280;45247;47.466;19.004;2023-02-17T12:44:54;100555.28;;;12.31;90.68
59443;BME280;45247;47.466;19.004;2023-02-17T12:47:28;100557.94;;;12.47;86.80
59443;BME280;45247;47.466;19.004;2023-02-17T12:50:02;100549.78;;;12.50;83.10
59443;BME280;45247;47.466;19.004;2023-02-17T12:52:36;100558.00;;;12.45;83.15
59443;BME280;45247;47.466;19.004;2023-02-17T12:55:13;100556.19;;;12.62;83.72
59443;BME280;45247;47.466;19.004;2023-02-17T12:57:48;100554.66;;;12.58;83.73
59443;BME280;45247;47.466;19.004;2023-02-17T13:00:26;100553.22;;;12.52;85.97
59443;BME280;45247;47.466;19.004;2023-02-17T13:02:57;100551.63;;;12.34;86.16
59443;BME280;45247;47.466;19.004;2023-02-17T13:05:28;100541.53;;;12.24;87.60
59443;BME280;45247;47.466;19.004;2023-02-17T13:08:01;100543.69;;;12.02;91.11
59443;BME280;45247;47.466;19.004;2023-02-17T13:10:36;100546.69;;;11.96;91.92